Time;durP1;ratioP1;P1;durP2;ratioP2;P2;SDS_P1;SDS_P2;PMS_P1;PMS_P2;Temp;Humidity;BMP_temperature;BMP_pressure;BME280_temperature;BME280_humidity;BME280_pressure;Samples;Min_cycle;Max_cycle;Signal;HPM_P1;HPM_P2
2024/01/22 00:01:03;;;;;;;6.93;6.17;;;;;;;;;;5070827;28;20200;-81
2024/01/22 00:03:32;;;;;;;7.43;6.73;;;;;;;;;;5071854;28;20207;-81
2024/01/22 00:06:00;;;;;;;5.63;4.40;;;;;;;;;;5087376;28;20299;-81
2024/01/22 00:08:29;;;;;;;7.63;5.03;;;;;;;;;;5072311;28;20227;-81
2024/01/22 00:10:58;;;;;;;8.13;7.17;;;;;;;;;;5070694;28;20299;-82
2024/01/22 00:13:26;;;;;;;6.60;5.97;;;;;;;;;;5087659;28;20279;-81
2024/01/22 00:15:55;;;;;;;8.33;6.17;;;;;;;;;;5071537;28;20204;-81
2024/01/22 00:18:23;;;;;;;5.57;4.97;;;;;;;;;;5071413;28;20282;-81
2024/01/22 00:20:52;;;;;;;6.87;5.43;;;;;;;;;;5087287;28;20240;-81
2024/01/22 00:23:21;;;;;;;6.07;4.20;;;;;;;;;;5087069;28;20196;-81
2024/01/22 00:25:49;;;;;;;7.80;5.13;;;;;;;;;;5069979;28;20290;-81
2024/01/22 00:28:18;;;;;;;7.80;7.00;;;;;;;;;;5071506;28;20200;-81
2024/01/22 00:30:46;;;;;;;7.40;6.63;;;;;;;;;;5071530;28;20328;-81
2024/01/22 00:33:16;;;;;;;8.87;5.87;;;;;;;;;;5071086;28;20216;-80
2024/01/22 00:35:45;;;;;;;8.80;5.43;;;;;;;;;;5070101;28;20201;-80
2024/01/22 00:38:14;;;;;;;7.47;4.93;;;;;;;;;;5086757;28;20204;-80
2024/01/22 00:40:42;;;;;;;7.40;5.00;;;;;;;;;;5070414;28;20246;-80
2024/01/22 00:43:10;;;;;;;7.57;5.80;;;;;;;;;;5070169;28;20187;-80
2024/01/22 00:45:39;;;;;;;9.17;6.37;;;;;;;;;;5070211;28;20201;-80
2024/01/22 00:48:08;;;;;;;8.47;7.37;;;;;;;;;;5069944;28;20200;-81
2024/01/22 00:50:38;;;;;;;8.50;6.90;;;;;;;;;;5071527;28;20218;-81
2024/01/22 00:53:07;;;;;;;9.50;7.27;;;;;;;;;;5070003;28;20299;-81
2024/01/22 00:55:35;;;;;;;7.20;4.83;;;;;;;;;;5073803;28;20238;-81
2024/01/22 00:58:04;;;;;;;9.60;6.73;;;;;;;;;;5073252;28;20239;-81
2024/01/22 01:00:33;;;;;;;8.27;7.40;;;;;;;;;;5075614;28;20199;-81
2024/01/22 01:03:01;;;;;;;5.50;4.77;;;;;;;;;;5075392;28;20271;-81
2024/01/22 01:05:29;;;;;;;11.23;7.57;;;;;;;;;;5091224;28;20214;-81
2024/01/22 01:07:59;;;;;;;7.50;5.13;;;;;;;;;;5074778;28;20204;-81
2024/01/22 01:10:28;;;;;;;8.63;6.83;;;;;;;;;;5074977;28;20204;-81
2024/01/22 01:12:56;;;;;;;8.30;6.73;;;;;;;;;;5074069;28;20207;-81
2024/01/22 01:15:27;;;;;;;9.17;7.33;;;;;;;;;;5074252;28;20201;-81
2024/01/22 01:17:55;;;;;;;4.23;3.87;;;;;;;;;;5073433;28;20196;-81
2024/01/22 01:20:24;;;;;;;7.70;6.20;;;;;;;;;;5090794;28;20199;-81
2024/01/22 01:22:52;;;;;;;6.63;5.20;;;;;;;;;;5075081;28;20206;-81
2024/01/22 01:25:22;;;;;;;6.67;5.63;;;;;;;;;;5075268;28;20230;-81
2024/01/22 01:27:54;;;;;;;6.03;4.40;;;;;;;;;;5074743;28;20206;-82
2024/01/22 01:30:23;;;;;;;4.17;3.77;;;;;;;;;;5073152;28;20239;-82
2024/01/22 01:32:55;;;;;;;6.47;4.57;;;;;;;;;;5074513;28;20223;-82
2024/01/22 01:35:24;;;;;;;5.77;4.23;;;;;;;;;;5073789;28;20197;-82
2024/01/22 01:37:53;;;;;;;7.90;6.10;;;;;;;;;;5073445;28;20208;-82
2024/01/22 01:40:23;;;;;;;8.23;5.30;;;;;;;;;;5074164;28;20230;-82
2024/01/22 01:42:51;;;;;;;7.83;5.93;;;;;;;;;;5074769;28;20236;-82
2024/01/22 01:45:20;;;;;;;9.77;4.33;;;;;;;;;;5090284;28;20223;-82
2024/01/22 01:47:49;;;;;;;7.20;5.90;;;;;;;;;;5090305;28;20203;-82
2024/01/22 01:50:18;;;;;;;6.63;5.37;;;;;;;;;;5089972;28;20214;-81
2024/01/22 01:52:47;;;;;;;5.47;4.87;;;;;;;;;;5090176;28;20193;-81
2024/01/22 01:55:15;;;;;;;6.70;4.97;;;;;;;;;;5074760;28;20216;-81
2024/01/22 01:57:47;;;;;;;6.13;5.03;;;;;;;;;;5090109;28;20554;-81
2024/01/22 02:00:21;;;;;;;8.23;5.67;;;;;;;;;;5073548;28;20208;-81
2024/01/22 02:02:50;;;;;;;5.23;3.67;;;;;;;;;;5089728;28;20208;-80
2024/01/22 02:05:18;;;;;;;7.07;5.97;;;;;;;;;;5074493;28;20196;-80
2024/01/22 02:07:47;;;;;;;7.07;4.47;;;;;;;;;;5071900;28;20230;-81
2024/01/22 02:10:16;;;;;;;3.97;3.30;;;;;;;;;;5072720;28;20254;-81
2024/01/22 02:12:45;;;;;;;6.37;4.10;;;;;;;;;;5073497;28;20200;-82
2024/01/22 02:15:14;;;;;;;6.80;4.33;;;;;;;;;;5073952;28;20220;-82
2024/01/22 02:17:43;;;;;;;6.07;3.47;;;;;;;;;;5089735;28;20199;-82
2024/01/22 02:20:12;;;;;;;8.10;4.03;;;;;;;;;;5072222;28;20200;-82
2024/01/22 02:22:41;;;;;;;2.40;2.20;;;;;;;;;;5088811;28;20215;-82
2024/01/22 02:25:11;;;;;;;2.63;2.43;;;;;;;;;;5089196;28;20200;-82
2024/01/22 02:27:39;;;;;;;7.40;4.40;;;;;;;;;;5073574;28;20197;-82
2024/01/22 02:30:08;;;;;;;6.33;3.93;;;;;;;;;;5072613;28;20237;-82
2024/01/22 02:32:36;;;;;;;3.30;2.93;;;;;;;;;;5072594;28;20269;-82
2024/01/22 02:35:05;;;;;;;4.20;3.10;;;;;;;;;;5072215;28;20217;-82
2024/01/22 02:37:34;;;;;;;5.30;2.43;;;;;;;;;;5073588;28;20200;-82
2024/01/22 02:40:03;;;;;;;3.63;2.43;;;;;;;;;;5089218;28;20201;-82
2024/01/22 02:42:32;;;;;;;5.30;3.67;;;;;;;;;;5072663;28;20212;-82
2024/01/22 02:45:01;;;;;;;5.63;2.70;;;;;;;;;;5073263;28;20210;-82
2024/01/22 02:47:30;;;;;;;3.87;2.60;;;;;;;;;;5089164;28;20194;-82
2024/01/22 02:49:58;;;;;;;3.17;2.10;;;;;;;;;;5089178;28;20224;-82
2024/01/22 02:52:27;;;;;;;3.67;2.90;;;;;;;;;;5088419;28;20296;-82
2024/01/22 02:54:55;;;;;;;2.70;2.50;;;;;;;;;;5071385;28;20204;-82
2024/01/22 02:57:23;;;;;;;4.70;2.67;;;;;;;;;;5073194;28;20206;-82
2024/01/22 02:59:53;;;;;;;4.27;1.90;;;;;;;;;;5073278;28;20200;-82
2024/01/22 03:02:22;;;;;;;2.70;2.50;;;;;;;;;;5088310;28;20204;-82
2024/01/22 03:04:50;;;;;;;3.03;2.23;;;;;;;;;;5088614;28;20196;-80
2024/01/22 03:07:22;;;;;;;5.43;4.17;;;;;;;;;;5089070;28;20194;-80
2024/01/22 03:09:50;;;;;;;3.03;2.10;;;;;;;;;;5073627;28;20246;-80
2024/01/22 03:12:21;;;;;;;3.23;2.43;;;;;;;;;;5072389;28;20197;-81
2024/01/22 03:14:49;;;;;;;4.20;2.83;;;;;;;;;;5088294;28;20400;-80
2024/01/22 03:17:19;;;;;;;4.97;2.00;;;;;;;;;;5072779;28;20293;-80
2024/01/22 03:19:48;;;;;;;3.97;3.20;;;;;;;;;;5073060;28;20259;-80
2024/01/22 03:22:16;;;;;;;3.17;2.87;;;;;;;;;;5071525;28;20223;-81
2024/01/22 03:24:46;;;;;;;2.93;2.10;;;;;;;;;;5071332;28;20194;-80
2024/01/22 03:27:15;;;;;;;2.40;2.20;;;;;;;;;;5072433;28;20213;-80
2024/01/22 03:29:44;;;;;;;2.60;2.13;;;;;;;;;;5072395;28;20233;-80
2024/01/22 03:32:12;;;;;;;3.10;2.47;;;;;;;;;;5072301;28;20198;-80
2024/01/22 03:34:42;;;;;;;3.27;2.20;;;;;;;;;;5070621;28;20269;-80
2024/01/22 03:37:11;;;;;;;3.23;2.43;;;;;;;;;;5071350;28;20202;-81
2024/01/22 03:39:40;;;;;;;2.03;1.80;;;;;;;;;;5072487;28;20204;-80
2024/01/22 03:42:11;;;;;;;3.33;2.50;;;;;;;;;;5072366;28;20216;-80
2024/01/22 03:44:40;;;;;;;3.30;2.63;;;;;;;;;;5072151;28;20291;-80
2024/01/22 03:47:09;;;;;;;1.33;1.23;;;;;;;;;;5071874;28;20186;-80
2024/01/22 03:49:37;;;;;;;3.37;2.23;;;;;;;;;;5071317;28;20221;-80
2024/01/22 03:52:08;;;;;;;2.40;2.20;;;;;;;;;;5070921;28;20201;-80
2024/01/22 03:54:36;;;;;;;3.13;1.87;;;;;;;;;;5070857;28;20263;-80
2024/01/22 03:57:07;;;;;;;2.30;1.70;;;;;;;;;;5071493;28;20201;-81
2024/01/22 03:59:35;;;;;;;2.00;1.90;;;;;;;;;;5072450;28;20200;-80
2024/01/22 04:02:04;;;;;;;2.73;2.10;;;;;;;;;;5087812;28;20204;-80
2024/01/22 04:04:33;;;;;;;1.90;1.80;;;;;;;;;;5071750;28;20209;-80
2024/01/22 04:07:01;;;;;;;2.47;2.23;;;;;;;;;;5071578;28;20219;-80
2024/01/22 04:09:31;;;;;;;2.57;2.00;;;;;;;;;;5071696;28;20193;-80
2024/01/22 04:11:59;;;;;;;3.67;2.07;;;;;;;;;;5071774;28;20198;-80
2024/01/22 04:14:28;;;;;;;2.03;1.80;;;;;;;;;;5071789;28;20214;-80
2024/01/22 04:16:57;;;;;;;3.33;1.47;;;;;;;;;;5070530;28;20212;-80
2024/01/22 04:19:25;;;;;;;4.80;2.27;;;;;;;;;;5071429;28;20196;-80
2024/01/22 04:21:54;;;;;;;1.83;1.63;;;;;;;;;;5070485;28;20251;-82
2024/01/22 04:24:22;;;;;;;5.17;2.40;;;;;;;;;;5071081;28;20242;-82
2024/01/22 04:26:52;;;;;;;4.30;1.73;;;;;;;;;;5071008;28;20260;-82
2024/01/22 04:29:20;;;;;;;3.27;1.70;;;;;;;;;;5085803;28;20237;-82
2024/01/22 04:31:49;;;;;;;6.17;2.20;;;;;;;;;;5086867;28;20284;-82
2024/01/22 04:34:17;;;;;;;4.43;2.20;;;;;;;;;;5070554;28;20197;-82
2024/01/22 04:36:46;;;;;;;5.37;2.03;;;;;;;;;;5071283;28;20213;-82
2024/01/22 04:39:15;;;;;;;3.17;1.93;;;;;;;;;;5071270;28;20212;-82
2024/01/22 04:41:44;;;;;;;3.00;1.60;;;;;;;;;;5070602;28;20202;-82
2024/01/22 04:44:14;;;;;;;4.30;2.37;;;;;;;;;;5087187;28;20193;-82
2024/01/22 04:46:43;;;;;;;3.13;1.73;;;;;;;;;;5070291;28;20233;-82
2024/01/22 04:49:11;;;;;;;4.20;2.10;;;;;;;;;;5069777;28;20217;-82
2024/01/22 04:51:43;;;;;;;7.27;2.80;;;;;;;;;;5070183;28;20264;-82
2024/01/22 04:54:12;;;;;;;4.27;2.33;;;;;;;;;;5071260;28;20190;-82
2024/01/22 04:56:42;;;;;;;3.03;2.10;;;;;;;;;;5069862;28;20252;-82
2024/01/22 04:59:10;;;;;;;6.07;2.47;;;;;;;;;;5071011;28;20197;-82
2024/01/22 05:01:40;;;;;;;8.60;2.70;;;;;;;;;;5069534;28;20220;-82
2024/01/22 05:04:12;;;;;;;8.07;3.60;;;;;;;;;;5069737;28;20292;-82
2024/01/22 05:06:40;;;;;;;6.17;2.17;;;;;;;;;;5070078;28;20239;-82
2024/01/22 05:09:09;;;;;;;12.77;4.43;;;;;;;;;;5070142;28;20232;-82
2024/01/22 05:11:38;;;;;;;8.03;2.97;;;;;;;;;;5071031;28;20194;-82
2024/01/22 05:14:06;;;;;;;5.93;3.57;;;;;;;;;;5069903;28;20198;-82
2024/01/22 05:16:35;;;;;;;7.60;2.33;;;;;;;;;;5070101;28;20239;-82
2024/01/22 05:19:04;;;;;;;11.03;2.93;;;;;;;;;;5070790;28;20221;-82
2024/01/22 05:21:33;;;;;;;14.40;3.50;;;;;;;;;;5070544;28;20200;-82
2024/01/22 05:24:03;;;;;;;8.07;2.67;;;;;;;;;;5071098;28;20197;-82
2024/01/22 05:26:31;;;;;;;10.40;3.37;;;;;;;;;;5086825;28;20202;-81
2024/01/22 05:29:00;;;;;;;18.20;5.53;;;;;;;;;;5069417;28;20230;-81
2024/01/22 05:31:28;;;;;;;11.03;3.40;;;;;;;;;;5070374;28;20201;-82
2024/01/22 05:33:56;;;;;;;13.50;4.60;;;;;;;;;;5086491;28;20204;-82
2024/01/22 05:36:27;;;;;;;9.13;3.50;;;;;;;;;;5069608;28;20217;-82
2024/01/22 05:38:58;;;;;;;13.97;6.20;;;;;;;;;;5070340;28;20365;-82
2024/01/22 05:41:26;;;;;;;17.73;4.83;;;;;;;;;;5072339;28;20216;-82
2024/01/22 05:43:55;;;;;;;12.30;4.67;;;;;;;;;;5074728;28;20198;-80
2024/01/22 05:46:23;;;;;;;15.30;4.47;;;;;;;;;;5074777;28;20194;-80
2024/01/22 05:48:52;;;;;;;28.53;6.43;;;;;;;;;;5090495;28;20311;-80
2024/01/22 05:51:20;;;;;;;14.87;5.60;;;;;;;;;;5074641;28;20205;-80
2024/01/22 05:53:51;;;;;;;19.50;7.97;;;;;;;;;;5074340;28;20285;-82
2024/01/22 05:56:22;;;;;;;20.27;5.23;;;;;;;;;;5073610;28;20239;-82
2024/01/22 05:58:50;;;;;;;16.47;6.87;;;;;;;;;;5090520;28;20232;-82
2024/01/22 06:01:22;;;;;;;25.37;5.80;;;;;;;;;;5073906;28;20212;-82
2024/01/22 06:03:53;;;;;;;15.63;5.37;;;;;;;;;;5074513;28;20194;-82
2024/01/22 06:06:22;;;;;;;31.10;8.73;;;;;;;;;;5073345;28;20287;-82
2024/01/22 06:08:52;;;;;;;14.67;4.73;;;;;;;;;;5073621;28;20229;-82
2024/01/22 06:11:22;;;;;;;25.80;7.13;;;;;;;;;;5073651;28;20251;-82
2024/01/22 06:13:51;;;;;;;31.33;11.77;;;;;;;;;;5073971;28;20293;-82
2024/01/22 06:16:29;;;;;;;46.67;15.70;;;;;;;;;;5073313;28;20213;-82
2024/01/22 06:18:58;;;;;;;27.20;8.83;;;;;;;;;;5089976;28;20201;-82
2024/01/22 06:21:27;;;;;;;17.43;5.33;;;;;;;;;;5073848;28;20197;-81
2024/01/22 06:23:57;;;;;;;25.93;7.67;;;;;;;;;;5089036;28;20197;-82
2024/01/22 06:26:26;;;;;;;25.63;8.73;;;;;;;;;;5089777;28;20197;-81
2024/01/22 06:28:58;;;;;;;39.77;13.63;;;;;;;;;;5074978;28;20279;-81
2024/01/22 06:31:27;;;;;;;47.37;18.17;;;;;;;;;;5074009;28;20197;-81
2024/01/22 06:33:55;;;;;;;37.13;10.10;;;;;;;;;;5073493;28;20201;-80
2024/01/22 06:36:24;;;;;;;37.60;12.73;;;;;;;;;;5073287;28;20312;-81
2024/01/22 06:38:52;;;;;;;34.80;10.10;;;;;;;;;;5073848;28;20200;-80
2024/01/22 06:41:25;;;;;;;29.93;10.23;;;;;;;;;;5073892;28;20202;-81
2024/01/22 06:43:53;;;;;;;23.60;7.83;;;;;;;;;;5071806;28;20219;-80
2024/01/22 06:46:22;;;;;;;27.57;9.40;;;;;;;;;;5089184;28;20257;-80
2024/01/22 06:48:51;;;;;;;26.67;9.13;;;;;;;;;;5072399;28;20263;-80
2024/01/22 06:51:19;;;;;;;25.43;6.90;;;;;;;;;;5089323;28;20509;-81
2024/01/22 06:53:58;;;;;;;41.33;12.57;;;;;;;;;;5072659;28;20198;-80
2024/01/22 06:56:28;;;;;;;29.20;8.67;;;;;;;;;;5073232;28;20221;-80
2024/01/22 06:58:57;;;;;;;20.53;7.57;;;;;;;;;;5073450;28;20208;-80
2024/01/22 07:01:27;;;;;;;35.43;10.73;;;;;;;;;;5073209;28;20226;-80
2024/01/22 07:03:56;;;;;;;24.10;6.50;;;;;;;;;;5073036;28;20380;-80
2024/01/22 07:06:25;;;;;;;27.17;8.93;;;;;;;;;;5088763;28;20221;-80
2024/01/22 07:08:54;;;;;;;29.93;8.27;;;;;;;;;;5073290;28;20194;-80
2024/01/22 07:11:22;;;;;;;29.10;8.70;;;;;;;;;;5072112;28;20205;-80
2024/01/22 07:13:52;;;;;;;29.43;9.03;;;;;;;;;;5071811;28;20291;-80
2024/01/22 07:16:22;;;;;;;31.97;9.30;;;;;;;;;;5088465;28;20200;-80
2024/01/22 07:18:51;;;;;;;24.13;6.93;;;;;;;;;;5088550;28;20230;-80
2024/01/22 07:21:20;;;;;;;19.23;7.00;;;;;;;;;;5088937;28;20251;-80
2024/01/22 07:23:50;;;;;;;28.80;8.13;;;;;;;;;;5071610;28;20212;-81
2024/01/22 07:26:22;;;;;;;36.77;9.70;;;;;;;;;;5071477;28;20201;-81
2024/01/22 07:28:50;;;;;;;20.10;6.27;;;;;;;;;;5071169;28;20227;-80
2024/01/22 07:31:22;;;;;;;48.57;11.30;;;;;;;;;;5072920;28;20194;-80
2024/01/22 07:33:50;;;;;;;29.53;7.93;;;;;;;;;;5071640;28;20212;-80
2024/01/22 07:36:19;;;;;;;26.37;8.67;;;;;;;;;;5071177;28;20291;-80
2024/01/22 07:38:49;;;;;;;27.67;9.23;;;;;;;;;;5071281;28;20262;-81
2024/01/22 07:41:18;;;;;;;40.40;12.37;;;;;;;;;;5088397;28;20196;-80
2024/01/22 07:43:49;;;;;;;60.87;15.20;;;;;;;;;;5071298;28;20352;-81
2024/01/22 07:46:21;;;;;;;21.17;8.43;;;;;;;;;;5072032;28;20208;-80
2024/01/22 07:48:52;;;;;;;26.30;7.77;;;;;;;;;;5070968;28;20227;-80
2024/01/22 07:51:21;;;;;;;23.60;8.00;;;;;;;;;;5072351;28;20201;-80
2024/01/22 07:53:50;;;;;;;23.47;8.33;;;;;;;;;;5070925;28;20221;-79
2024/01/22 07:56:20;;;;;;;19.87;6.80;;;;;;;;;;5071917;28;20256;-80
2024/01/22 07:58:49;;;;;;;33.30;8.97;;;;;;;;;;5070639;28;20224;-80
2024/01/22 08:01:19;;;;;;;42.23;9.97;;;;;;;;;;5070921;28;20235;-80
2024/01/22 08:03:48;;;;;;;26.37;8.30;;;;;;;;;;5087045;28;20262;-80
2024/01/22 08:06:18;;;;;;;17.20;8.33;;;;;;;;;;5071629;28;20215;-79
2024/01/22 08:08:47;;;;;;;22.73;7.40;;;;;;;;;;5071476;28;20198;-80
2024/01/22 08:11:16;;;;;;;29.73;8.47;;;;;;;;;;5070563;28;20208;-79
2024/01/22 08:13:44;;;;;;;51.63;11.83;;;;;;;;;;5087710;28;20197;-80
2024/01/22 08:16:13;;;;;;;37.50;7.73;;;;;;;;;;5070720;28;20295;-80
2024/01/22 08:18:41;;;;;;;35.80;8.90;;;;;;;;;;5086843;28;20217;-80
2024/01/22 08:21:10;;;;;;;22.90;6.67;;;;;;;;;;5072025;28;20199;-80
2024/01/22 08:23:40;;;;;;;36.67;11.03;;;;;;;;;;5071835;28;20197;-80
2024/01/22 08:26:09;;;;;;;41.90;9.97;;;;;;;;;;5071747;28;20222;-80
2024/01/22 08:28:37;;;;;;;36.23;8.77;;;;;;;;;;5069879;28;20204;-79
2024/01/22 08:31:06;;;;;;;51.97;13.00;;;;;;;;;;5070177;28;20206;-80
2024/01/22 08:33:34;;;;;;;35.53;8.27;;;;;;;;;;5071538;28;20200;-80
2024/01/22 08:36:03;;;;;;;39.33;12.17;;;;;;;;;;5071872;28;20196;-80
2024/01/22 08:38:32;;;;;;;35.80;9.30;;;;;;;;;;5069992;28;20210;-80
2024/01/22 08:41:03;;;;;;;24.63;9.83;;;;;;;;;;5069866;28;20212;-79
2024/01/22 08:43:32;;;;;;;47.80;12.07;;;;;;;;;;5070560;28;20203;-80
2024/01/22 08:46:00;;;;;;;32.23;10.33;;;;;;;;;;5070135;28;20193;-80
2024/01/22 08:48:30;;;;;;;35.97;8.07;;;;;;;;;;5070708;28;20206;-80
2024/01/22 08:51:01;;;;;;;32.43;8.27;;;;;;;;;;5070811;28;20197;-80
2024/01/22 08:53:29;;;;;;;28.37;9.63;;;;;;;;;;5087208;28;20266;-80
2024/01/22 08:55:58;;;;;;;27.77;6.73;;;;;;;;;;5071628;28;20195;-79
2024/01/22 08:58:28;;;;;;;14.80;5.83;;;;;;;;;;5069678;28;20239;-80
2024/01/22 09:00:57;;;;;;;26.87;11.17;;;;;;;;;;5069690;28;20196;-80
2024/01/22 09:03:25;;;;;;;26.23;7.97;;;;;;;;;;5069936;28;20196;-80
2024/01/22 09:05:54;;;;;;;49.50;11.73;;;;;;;;;;5071377;28;20205;-80
2024/01/22 09:08:23;;;;;;;46.43;14.93;;;;;;;;;;5071083;28;20185;-80
2024/01/22 09:10:51;;;;;;;27.37;6.20;;;;;;;;;;5069875;28;20188;-80
2024/01/22 09:13:20;;;;;;;21.27;7.30;;;;;;;;;;5070881;28;20198;-80
2024/01/22 09:15:51;;;;;;;20.73;6.93;;;;;;;;;;5072259;28;20211;-80
2024/01/22 09:18:19;;;;;;;26.97;7.50;;;;;;;;;;5073965;28;20222;-80
2024/01/22 09:20:48;;;;;;;30.03;6.77;;;;;;;;;;5073661;28;20221;-80
2024/01/22 09:23:17;;;;;;;39.70;10.03;;;;;;;;;;5074695;28;20217;-80
2024/01/22 09:25:46;;;;;;;33.33;9.20;;;;;;;;;;5074230;28;20251;-80
2024/01/22 09:28:16;;;;;;;19.90;6.93;;;;;;;;;;5091127;28;20204;-81
2024/01/22 09:30:44;;;;;;;26.33;6.83;;;;;;;;;;5074621;28;20225;-80
2024/01/22 09:33:14;;;;;;;21.43;7.13;;;;;;;;;;5090356;28;20289;-80
2024/01/22 09:35:43;;;;;;;27.70;8.07;;;;;;;;;;5074717;28;20226;-80
2024/01/22 09:38:12;;;;;;;38.87;9.23;;;;;;;;;;5088692;28;20266;-80
2024/01/22 09:40:40;;;;;;;40.73;9.80;;;;;;;;;;5094796;28;20213;-80
2024/01/22 09:43:09;;;;;;;26.73;7.37;;;;;;;;;;5094472;28;20292;-80
2024/01/22 09:45:41;;;;;;;32.67;8.40;;;;;;;;;;5094975;28;20201;-79
2024/01/22 09:48:10;;;;;;;13.63;5.77;;;;;;;;;;5094817;28;20203;-80
2024/01/22 09:50:40;;;;;;;23.43;8.27;;;;;;;;;;5095305;28;20216;-80
2024/01/22 09:53:10;;;;;;;34.40;12.63;;;;;;;;;;5092973;28;20191;-81
2024/01/22 09:55:40;;;;;;;29.50;7.27;;;;;;;;;;5094979;28;20196;-80
2024/01/22 09:58:09;;;;;;;17.77;5.07;;;;;;;;;;5094725;28;20304;-81
2024/01/22 10:00:39;;;;;;;31.40;8.97;;;;;;;;;;5093525;28;20215;-80
2024/01/22 10:03:08;;;;;;;14.77;6.00;;;;;;;;;;5093905;28;20242;-80
2024/01/22 10:05:37;;;;;;;16.60;7.80;;;;;;;;;;5110374;28;20201;-80
2024/01/22 10:08:07;;;;;;;19.30;6.30;;;;;;;;;;5094270;28;20193;-80
2024/01/22 10:10:37;;;;;;;18.03;6.93;;;;;;;;;;5093770;28;20238;-80
2024/01/22 10:13:08;;;;;;;17.73;4.80;;;;;;;;;;5092676;28;20211;-80
2024/01/22 10:15:37;;;;;;;23.07;4.97;;;;;;;;;;5092933;28;20239;-80
2024/01/22 10:18:09;;;;;;;12.50;4.17;;;;;;;;;;5094418;28;20244;-80
2024/01/22 10:20:38;;;;;;;23.20;7.57;;;;;;;;;;5093144;28;20216;-80
2024/01/22 10:23:08;;;;;;;18.40;6.97;;;;;;;;;;5093590;28;20225;-80
2024/01/22 10:25:37;;;;;;;20.47;6.30;;;;;;;;;;5093753;28;20282;-80
2024/01/22 10:28:10;;;;;;;16.27;5.53;;;;;;;;;;5088856;28;20196;-80
2024/01/22 10:30:39;;;;;;;14.20;5.03;;;;;;;;;;5090902;28;20240;-80
2024/01/22 10:33:20;;;;;;;25.80;5.17;;;;;;;;;;5090076;28;20496;-80
2024/01/22 10:35:50;;;;;;;18.17;5.87;;;;;;;;;;5089629;28;20237;-80
2024/01/22 10:38:20;;;;;;;12.80;4.20;;;;;;;;;;5088151;28;20456;-80
2024/01/22 10:40:55;;;;;;;9.30;3.20;;;;;;;;;;5092964;28;20252;-80
2024/01/22 10:43:26;;;;;;;18.17;5.00;;;;;;;;;;5088354;28;20299;-80
2024/01/22 10:45:56;;;;;;;17.87;5.90;;;;;;;;;;5071723;28;20200;-80
2024/01/22 10:48:28;;;;;;;20.83;6.37;;;;;;;;;;5081471;28;20195;-80
2024/01/22 10:51:11;;;;;;;25.37;6.67;;;;;;;;;;5091641;28;20193;-80
2024/01/22 10:53:43;;;;;;;26.60;5.30;;;;;;;;;;5091990;28;20279;-80
2024/01/22 10:56:16;;;;;;;19.73;6.10;;;;;;;;;;5089189;28;20461;-81
2024/01/22 10:58:50;;;;;;;15.47;6.20;;;;;;;;;;5079435;28;20216;-81
2024/01/22 11:01:24;;;;;;;31.33;7.73;;;;;;;;;;5092033;28;20217;-80
2024/01/22 11:03:55;;;;;;;22.17;6.87;;;;;;;;;;5093512;28;20220;-80
2024/01/22 11:06:30;;;;;;;40.80;6.40;;;;;;;;;;5090789;28;20205;-80
2024/01/22 11:09:05;;;;;;;13.70;5.50;;;;;;;;;;5091633;28;20218;-80
2024/01/22 11:11:37;;;;;;;17.40;5.27;;;;;;;;;;5091794;28;20273;-79
2024/01/22 11:14:05;;;;;;;15.87;5.27;;;;;;;;;;5091126;28;20222;-79
2024/01/22 11:16:34;;;;;;;14.70;6.27;;;;;;;;;;5092322;28;20277;-79
2024/01/22 11:19:07;;;;;;;13.27;5.00;;;;;;;;;;5092727;28;20216;-79
2024/01/22 11:21:37;;;;;;;14.00;5.00;;;;;;;;;;5092060;28;20197;-79
2024/01/22 11:24:11;;;;;;;12.00;5.10;;;;;;;;;;5091254;28;20204;-79
2024/01/22 11:26:43;;;;;;;14.50;4.63;;;;;;;;;;5092361;28;20220;-79
2024/01/22 11:29:26;;;;;;;15.67;4.87;;;;;;;;;;5091096;28;20232;-79
2024/01/22 11:31:58;;;;;;;20.50;7.10;;;;;;;;;;5072441;28;20195;-78
2024/01/22 11:34:45;;;;;;;22.27;6.03;;;;;;;;;;5071400;28;20251;-78
2024/01/22 11:37:34;;;;;;;18.90;4.73;;;;;;;;;;5071084;28;20247;-79
2024/01/22 11:40:11;;;;;;;8.07;3.63;;;;;;;;;;5070911;28;20223;-79
2024/01/22 11:42:40;;;;;;;24.03;5.00;;;;;;;;;;5083869;28;20201;-79
2024/01/22 11:45:13;;;;;;;22.87;6.23;;;;;;;;;;5086941;28;20197;-79
2024/01/22 11:47:43;;;;;;;23.13;5.40;;;;;;;;;;5087729;28;20194;-79
2024/01/22 11:50:15;;;;;;;12.97;5.13;;;;;;;;;;5071614;28;20229;-80
2024/01/22 11:52:44;;;;;;;14.93;5.60;;;;;;;;;;5072255;28;20236;-81
2024/01/22 11:55:23;;;;;;;17.20;4.90;;;;;;;;;;5085070;28;20256;-81
2024/01/22 11:57:52;;;;;;;18.43;5.67;;;;;;;;;;5084509;28;20250;-81
2024/01/22 12:00:22;;;;;;;16.90;4.83;;;;;;;;;;5088644;28;20298;-81
2024/01/22 12:02:55;;;;;;;17.57;6.20;;;;;;;;;;5091472;28;20193;-81
2024/01/22 12:05:23;;;;;;;9.20;4.27;;;;;;;;;;5088746;28;20205;-84
2024/01/22 12:07:52;;;;;;;24.50;7.23;;;;;;;;;;5091418;28;20231;-81
2024/01/22 12:10:24;;;;;;;17.20;4.90;;;;;;;;;;5090120;28;20207;-82
2024/01/22 12:12:54;;;;;;;19.10;6.23;;;;;;;;;;5089689;28;20193;-80
2024/01/22 12:15:23;;;;;;;25.13;6.67;;;;;;;;;;5089892;28;20211;-80
2024/01/22 12:17:54;;;;;;;21.93;7.43;;;;;;;;;;5077940;28;20258;-81
2024/01/22 12:20:23;;;;;;;10.93;5.17;;;;;;;;;;5089137;28;20212;-81
2024/01/22 12:22:59;;;;;;;24.33;6.20;;;;;;;;;;5089390;28;20203;-81
2024/01/22 12:25:39;;;;;;;26.40;6.47;;;;;;;;;;5090668;28;20282;-81
2024/01/22 12:28:08;;;;;;;32.97;6.30;;;;;;;;;;5089641;28;20296;-80
2024/01/22 12:30:39;;;;;;;28.90;6.17;;;;;;;;;;5087621;28;20228;-81
2024/01/22 12:33:08;;;;;;;16.90;5.77;;;;;;;;;;5069840;28;20196;-81
2024/01/22 12:35:42;;;;;;;18.73;5.67;;;;;;;;;;5072584;28;20201;-81
2024/01/22 12:38:12;;;;;;;15.87;5.00;;;;;;;;;;5088797;28;20193;-81
2024/01/22 12:40:42;;;;;;;24.60;5.87;;;;;;;;;;5088498;28;20217;-81
2024/01/22 12:43:13;;;;;;;10.07;3.77;;;;;;;;;;5090018;28;20315;-82
2024/01/22 12:45:42;;;;;;;16.70;5.00;;;;;;;;;;5090151;28;20193;-81
2024/01/22 12:48:11;;;;;;;14.03;4.73;;;;;;;;;;5090543;28;20197;-81
2024/01/22 12:50:39;;;;;;;17.13;6.07;;;;;;;;;;5088783;28;20216;-81
2024/01/22 12:53:08;;;;;;;15.23;3.57;;;;;;;;;;5089328;28;20201;-82
2024/01/22 12:55:36;;;;;;;18.97;5.80;;;;;;;;;;5089106;28;20203;-82
2024/01/22 12:58:07;;;;;;;7.80;2.93;;;;;;;;;;5086455;28;20189;-81
2024/01/22 13:00:36;;;;;;;18.47;5.93;;;;;;;;;;5086832;28;20244;-82
2024/01/22 13:03:04;;;;;;;14.67;5.70;;;;;;;;;;5089032;28;20199;-82
2024/01/22 13:05:33;;;;;;;16.80;6.27;;;;;;;;;;5088374;28;20249;-81
2024/01/22 13:08:06;;;;;;;18.57;5.97;;;;;;;;;;5090904;28;20203;-81
2024/01/22 13:10:36;;;;;;;11.80;3.70;;;;;;;;;;5088625;28;20189;-82
2024/01/22 13:13:07;;;;;;;11.47;3.57;;;;;;;;;;5088223;28;20214;-82
2024/01/22 13:15:35;;;;;;;9.93;4.33;;;;;;;;;;5086931;28;20203;-81
2024/01/22 13:18:15;;;;;;;36.33;8.17;;;;;;;;;;5087915;28;20284;-81
2024/01/22 13:20:47;;;;;;;17.67;5.33;;;;;;;;;;5088723;28;20212;-81
2024/01/22 13:23:17;;;;;;;17.37;6.13;;;;;;;;;;5089252;28;20193;-81
2024/01/22 13:25:46;;;;;;;13.40;3.23;;;;;;;;;;5088572;28;20200;-81
2024/01/22 13:28:22;;;;;;;35.77;9.63;;;;;;;;;;5085553;28;20209;-81
2024/01/22 13:30:51;;;;;;;20.17;6.47;;;;;;;;;;5096333;28;20268;-81
2024/01/22 13:33:20;;;;;;;19.97;5.57;;;;;;;;;;5086374;28;20207;-81
2024/01/22 13:35:48;;;;;;;10.20;4.93;;;;;;;;;;5087690;28;20319;-81
2024/01/22 13:38:17;;;;;;;16.50;4.57;;;;;;;;;;5088877;28;20203;-81
2024/01/22 13:40:46;;;;;;;17.03;5.27;;;;;;;;;;5087443;28;20207;-81
2024/01/22 13:43:14;;;;;;;21.40;6.37;;;;;;;;;;5087777;28;20212;-81
2024/01/22 13:45:48;;;;;;;28.07;7.60;;;;;;;;;;5085872;28;20207;-81
2024/01/22 13:48:16;;;;;;;20.97;6.13;;;;;;;;;;5088879;28;20197;-81
2024/01/22 13:50:45;;;;;;;12.03;3.97;;;;;;;;;;5088301;28;20201;-81
2024/01/22 13:53:16;;;;;;;19.43;6.13;;;;;;;;;;5083978;28;20197;-82
2024/01/22 13:55:44;;;;;;;13.47;3.93;;;;;;;;;;5087064;28;20196;-82
2024/01/22 13:58:13;;;;;;;13.60;4.70;;;;;;;;;;5089540;28;20197;-82
2024/01/22 14:00:41;;;;;;;20.20;5.73;;;;;;;;;;5082369;28;20213;-82
2024/01/22 14:03:11;;;;;;;19.73;6.03;;;;;;;;;;5090876;28;20201;-82
2024/01/22 14:05:40;;;;;;;18.37;6.57;;;;;;;;;;5090752;28;20209;-82
2024/01/22 14:08:08;;;;;;;16.87;8.03;;;;;;;;;;5091894;28;20197;-81
2024/01/22 14:10:37;;;;;;;23.90;5.37;;;;;;;;;;5109358;28;20191;-81
2024/01/22 14:13:07;;;;;;;14.43;5.27;;;;;;;;;;5093416;28;20192;-81
2024/01/22 14:15:39;;;;;;;26.40;6.07;;;;;;;;;;5089070;28;20196;-81
2024/01/22 14:18:08;;;;;;;13.20;4.80;;;;;;;;;;5091742;28;20240;-81
2024/01/22 14:20:38;;;;;;;8.53;4.23;;;;;;;;;;5092780;28;20241;-81
2024/01/22 14:23:10;;;;;;;20.73;5.03;;;;;;;;;;5091407;28;20191;-81
2024/01/22 14:25:39;;;;;;;23.70;6.43;;;;;;;;;;5092738;28;20194;-81
2024/01/22 14:28:10;;;;;;;18.10;7.10;;;;;;;;;;5089310;28;20215;-81
2024/01/22 14:30:39;;;;;;;19.60;6.47;;;;;;;;;;5091991;28;20223;-81
2024/01/22 14:33:09;;;;;;;17.03;5.20;;;;;;;;;;5089436;28;20276;-81
2024/01/22 14:35:40;;;;;;;15.20;6.30;;;;;;;;;;5106390;28;20198;-81
2024/01/22 14:38:08;;;;;;;18.77;5.50;;;;;;;;;;5091166;28;20205;-82
2024/01/22 14:40:40;;;;;;;13.80;4.37;;;;;;;;;;5091157;28;20296;-82
2024/01/22 14:43:09;;;;;;;12.83;3.77;;;;;;;;;;5090619;28;20199;-81
2024/01/22 14:45:38;;;;;;;21.50;7.53;;;;;;;;;;5083269;28;20210;-83
2024/01/22 14:48:07;;;;;;;16.67;6.17;;;;;;;;;;5090173;28;20223;-83